Irasburg, Vermont
Current Conditions -  °F | °C
As of 10:55 AM on Saturday 25 Oct 2014 (Local Time) from KEFK Reporting Station
Clear Clear  
Wind Chill: 52°   Ceiling: Unl
Heat Index: 52°   Visibility: 10mi
Dew Point: 40°   Wind: 6mph
Humidity: 64%   Direction: 190°S
Pressure: 29.69"   Gusts: NA
Location:  44.8°N, 72.28°W
Report Text: KEFK 251455Z AUTO 19005KT 10SM CLR 11/04 A2969 RMK AO2 T01100044
Loading
Personal Weather Stations






























Interactive Weather Map
Tropical Storm Tracking
New forecast layout! Learn more

10-Day Weather Forecast

Advertisements
Track Severe Weather on mobile